Time;durP1;ratioP1;P1;durP2;ratioP2;P2;SDS_P1;SDS_P2;PMS_P1;PMS_P2;Temp;Humidity;BMP_temperature;BMP_pressure;BME280_temperature;BME280_humidity;BME280_pressure;Samples;Min_cycle;Max_cycle;Signal;HPM_P1;HPM_P2
2023/01/08 00:00:09;;;;;;;52.13;49.33;;;9.20;99.90;;;;;;4993217;28;20495;-76
2023/01/08 00:02:35;;;;;;;49.40;46.67;;;9.20;99.90;;;;;;5011088;28;20065;-78
2023/01/08 00:05:00;;;;;;;38.43;36.23;;;9.30;99.90;;;;;;5012196;28;20050;-76
2023/01/08 00:07:26;;;;;;;55.33;52.43;;;9.30;99.90;;;;;;4995129;28;20044;-76
2023/01/08 00:09:53;;;;;;;50.13;47.60;;;9.30;99.90;;;;;;5010580;28;20045;-76
2023/01/08 00:12:19;;;;;;;65.77;62.43;;;9.30;99.90;;;;;;5010880;28;20053;-76
2023/01/08 00:14:45;;;;;;;55.77;52.97;;;9.30;99.90;;;;;;5011171;28;20057;-77
2023/01/08 00:17:10;;;;;;;41.87;39.40;;;9.30;99.90;;;;;;4994973;28;20046;-76
2023/01/08 00:19:36;;;;;;;103.30;97.40;;;9.30;99.90;;;;;;5011617;28;20053;-76
2023/01/08 00:22:02;;;;;;;28.43;26.83;;;9.40;99.90;;;;;;5011416;28;20484;-78
2023/01/08 00:24:27;;;;;;;65.67;62.37;;;9.40;99.90;;;;;;5016235;28;20056;-77
2023/01/08 00:26:53;;;;;;;43.63;41.40;;;9.40;99.90;;;;;;5015338;28;20076;-76
2023/01/08 00:29:18;;;;;;;28.80;27.10;;;9.30;99.90;;;;;;5029899;28;20057;-75
2023/01/08 00:31:44;;;;;;;164.93;156.23;;;9.40;99.90;;;;;;5031405;28;20427;-77
2023/01/08 00:34:10;;;;;;;35.00;33.03;;;9.40;99.90;;;;;;5023350;28;20054;-80
2023/01/08 00:36:35;;;;;;;55.30;52.50;;;9.50;99.90;;;;;;4979796;28;20085;-76
2023/01/08 00:39:01;;;;;;;45.80;43.30;;;9.50;99.90;;;;;;5009138;28;20254;-76
2023/01/08 00:41:27;;;;;;;37.67;35.50;;;9.40;99.90;;;;;;5010798;28;20176;-76
2023/01/08 00:43:52;;;;;;;82.03;77.90;;;9.30;99.90;;;;;;5010316;28;20049;-76
2023/01/08 00:46:18;;;;;;;47.40;44.70;;;9.40;99.90;;;;;;4999797;28;20058;-76
2023/01/08 00:48:43;;;;;;;35.40;33.50;;;9.40;99.90;;;;;;5005626;28;20452;-75
2023/01/08 00:51:12;;;;;;;54.00;51.37;;;9.40;99.90;;;;;;5009663;28;20049;-76
2023/01/08 00:53:38;;;;;;;86.57;82.23;;;9.40;99.90;;;;;;5007585;28;20046;-75
2023/01/08 00:56:06;;;;;;;39.27;37.10;;;9.30;99.90;;;;;;4992836;28;20181;-76
2023/01/08 00:58:32;;;;;;;29.77;28.17;;;9.30;99.90;;;;;;4977231;28;20042;-77
2023/01/08 01:00:58;;;;;;;42.10;39.80;;;9.30;99.90;;;;;;5004415;28;20167;-76
2023/01/08 01:03:23;;;;;;;63.10;59.87;;;9.20;99.90;;;;;;5006769;28;20049;-78
2023/01/08 01:05:49;;;;;;;37.43;35.30;;;9.30;99.90;;;;;;5005340;28;20041;-76
2023/01/08 01:08:15;;;;;;;43.10;40.80;;;9.40;99.90;;;;;;4992746;28;20037;-76
2023/01/08 01:10:41;;;;;;;36.73;34.80;;;9.40;99.90;;;;;;5002840;28;20104;-76
2023/01/08 01:13:07;;;;;;;37.67;35.63;;;9.30;99.90;;;;;;4989866;28;20100;-80
2023/01/08 01:15:33;;;;;;;27.90;26.33;;;9.20;99.90;;;;;;5006920;28;20076;-78
2023/01/08 01:17:58;;;;;;;38.27;35.97;;;9.20;99.90;;;;;;4972707;28;20077;-77
2023/01/08 01:20:24;;;;;;;115.00;109.00;;;9.10;99.90;;;;;;5005714;28;20053;-77
2023/01/08 01:22:50;;;;;;;25.77;24.07;;;9.10;99.90;;;;;;4994088;28;20054;-76
2023/01/08 01:25:16;;;;;;;62.67;58.83;;;9.20;99.90;;;;;;5002084;28;20072;-77
2023/01/08 01:27:41;;;;;;;57.07;53.90;;;9.20;99.90;;;;;;4979134;28;20084;-77
2023/01/08 01:30:08;;;;;;;98.27;93.03;;;9.20;99.90;;;;;;5030230;28;20049;-76
2023/01/08 01:32:34;;;;;;;38.97;36.63;;;9.30;99.90;;;;;;5026248;28;20491;-77
2023/01/08 01:35:00;;;;;;;10.67;9.67;;;9.30;99.90;;;;;;5008765;28;20046;-78
2023/01/08 01:37:26;;;;;;;23.63;22.00;;;9.30;99.90;;;;;;4992770;28;20038;-77
2023/01/08 01:39:52;;;;;;;27.37;25.77;;;9.30;99.90;;;;;;5010076;28;20121;-76
2023/01/08 01:45:16;;;;;;;46.67;44.27;;;9.30;99.90;;;;;;5010354;28;20169;-78
2023/01/08 01:47:44;;;;;;;21.30;20.00;;;9.20;99.90;;;;;;4973631;28;20053;-75
2023/01/08 01:50:21;;;;;;;25.17;23.53;;;9.20;99.90;;;;;;4991140;28;20050;-76
2023/01/08 01:53:04;;;;;;;43.77;41.20;;;9.10;99.90;;;;;;5008490;28;20056;-79
2023/01/08 01:55:30;;;;;;;13.07;12.07;;;9.20;99.90;;;;;;4976658;28;20475;-76
2023/01/08 01:58:23;;;;;;;19.07;17.77;;;9.10;99.90;;;;;;4993456;28;20052;-76
2023/01/08 02:00:50;;;;;;;14.90;13.83;;;9.10;99.90;;;;;;5009391;28;20057;-76
2023/01/08 02:03:19;;;;;;;19.97;18.57;;;9.00;99.90;;;;;;5008003;28;20096;-76
2023/01/08 02:06:00;;;;;;;26.33;24.67;;;9.00;99.90;;;;;;4992534;28;20065;-75
2023/01/08 02:08:59;;;;;;;18.42;17.05;;;9.10;99.90;;;;;;4993268;28;20053;-76
2023/01/08 02:11:33;;;;;;;15.37;13.93;;;9.10;99.90;;;;;;5009172;28;20499;-77
2023/01/08 02:14:07;;;;;;;21.87;20.13;;;9.00;99.90;;;;;;5008909;28;20411;-76
2023/01/08 02:16:37;;;;;;;17.17;15.90;;;9.00;99.90;;;;;;4978282;28;20046;-76
2023/01/08 02:19:17;;;;;;;17.10;15.57;;;8.90;99.90;;;;;;5007635;28;20077;-77
2023/01/08 02:21:52;;;;;;;15.63;14.27;;;8.90;99.90;;;;;;5008911;28;20057;-76
2023/01/08 02:24:45;;;;;;;15.70;14.20;;;8.70;99.90;;;;;;5009030;28;20492;-77
2023/01/08 02:27:13;;;;;;;18.63;17.23;;;8.70;99.90;;;;;;4993231;28;20041;-76
2023/01/08 02:29:39;;;;;;;17.67;13.73;;;8.70;99.90;;;;;;5011236;28;20053;-78
2023/01/08 02:32:05;;;;;;;15.60;12.40;;;8.60;99.90;;;;;;5027738;28;20049;-76
2023/01/08 02:34:31;;;;;;;12.07;10.33;;;8.60;99.90;;;;;;5032925;28;20056;-77
2023/01/08 02:36:59;;;;;;;14.90;11.33;;;8.50;99.90;;;;;;4965237;28;20061;-77
2023/01/08 02:39:54;;;;;;;14.93;10.00;;;8.50;99.90;;;;;;5013240;28;20057;-76
2023/01/08 02:42:46;;;;;;;10.30;7.30;;;8.40;99.90;;;;;;4994866;28;20096;-76
2023/01/08 02:45:34;;;;;;;;;;;8.30;99.90;;;;;;4996353;28;20049;-76
2023/01/08 02:48:08;;;;;;;13.77;5.63;;;8.30;99.90;;;;;;4979704;28;19979;-76
2023/01/08 02:50:42;;;;;;;9.83;6.57;;;8.20;99.90;;;;;;5013198;28;20050;-76
2023/01/08 02:53:17;;;;;;;12.93;8.70;;;8.20;99.90;;;;;;5012343;28;20049;-76
2023/01/08 02:55:48;;;;;;;11.20;8.70;;;8.10;99.90;;;;;;5013557;28;20060;-77
2023/01/08 02:58:15;;;;;;;12.65;6.03;;;8.00;99.90;;;;;;4996644;28;20050;-76
2023/01/08 03:00:44;;;;;;;17.70;7.50;;;8.00;99.90;;;;;;4995376;28;20108;-76
2023/01/08 03:03:26;;;;;;;18.03;16.23;;;8.00;99.90;;;;;;5012229;28;20078;-75
2023/01/08 03:06:07;;;;;;;15.63;6.73;;;7.90;99.90;;;;;;5013489;28;20403;-76
2023/01/08 03:08:37;;;;;;;18.30;6.15;;;7.90;99.90;;;;;;4998283;28;20386;-76
2023/01/08 03:11:09;;;;;;;16.57;7.67;;;7.80;99.90;;;;;;4979341;28;20054;-77
2023/01/08 03:13:47;;;;;;;19.27;5.90;;;7.80;99.90;;;;;;4994055;28;20042;-76
2023/01/08 03:16:32;;;;;;;19.73;5.87;;;7.80;99.90;;;;;;5004195;28;20050;-76
2023/01/08 03:19:13;;;;;;;22.17;6.17;;;7.70;99.90;;;;;;5009303;28;20046;-76
2023/01/08 03:21:41;;;;;;;24.42;8.07;;;7.70;99.90;;;;;;5012836;28;20062;-77
2023/01/08 03:24:09;;;;;;;16.50;6.03;;;7.80;99.90;;;;;;5011264;28;20069;-76
2023/01/08 03:26:36;;;;;;;22.57;17.20;;;7.70;99.90;;;;;;4979718;28;20054;-76
2023/01/08 03:29:03;;;;;;;15.37;8.10;;;7.60;99.90;;;;;;4972654;28;20046;-77
2023/01/08 03:31:33;;;;;;;14.00;9.27;;;7.60;99.90;;;;;;4992788;28;20487;-76
2023/01/08 03:34:00;;;;;;;13.30;6.07;;;7.60;99.90;;;;;;4957881;28;20050;-76
2023/01/08 03:36:28;;;;;;;14.50;5.83;;;7.50;99.90;;;;;;4976695;28;20050;-76
2023/01/08 03:38:57;;;;;;;18.17;6.93;;;7.50;99.90;;;;;;5008834;28;20050;-77
2023/01/08 03:41:26;;;;;;;20.13;7.17;;;7.60;99.90;;;;;;5011912;28;20046;-77
2023/01/08 03:43:52;;;;;;;13.13;5.50;;;7.50;99.90;;;;;;5010463;28;20061;-76
2023/01/08 03:46:25;;;;;;;14.50;5.03;;;7.50;99.90;;;;;;5000873;28;20041;-77
2023/01/08 03:48:51;;;;;;;13.83;6.73;;;7.50;99.90;;;;;;5007735;28;20068;-77
2023/01/08 03:51:17;;;;;;;18.03;11.33;;;7.50;99.90;;;;;;4994687;28;20049;-81
2023/01/08 03:53:43;;;;;;;13.90;8.00;;;7.60;99.90;;;;;;5010365;28;20388;-79
2023/01/08 03:56:09;;;;;;;15.70;14.17;;;7.60;99.90;;;;;;4988606;28;20057;-77
2023/01/08 03:58:34;;;;;;;21.30;9.10;;;7.60;99.90;;;;;;4984920;28;20053;-78
2023/01/08 04:01:00;;;;;;;24.23;22.20;;;7.70;99.90;;;;;;5011981;28;20056;-78
2023/01/08 04:03:26;;;;;;;18.73;16.70;;;7.60;99.90;;;;;;5010618;28;20267;-77
2023/01/08 04:05:52;;;;;;;26.43;23.93;;;7.60;99.90;;;;;;5012107;28;20053;-77
2023/01/08 04:08:17;;;;;;;48.90;45.27;;;7.70;99.90;;;;;;4977944;28;20046;-77
2023/01/08 04:10:43;;;;;;;17.73;15.97;;;7.70;99.90;;;;;;5011233;28;20100;-79
2023/01/08 04:13:09;;;;;;;12.87;10.37;;;7.70;99.90;;;;;;4993370;28;20046;-77
2023/01/08 04:15:34;;;;;;;19.80;17.17;;;7.70;99.90;;;;;;5011440;28;20049;-77
2023/01/08 04:18:00;;;;;;;20.20;12.73;;;7.70;99.90;;;;;;4995183;28;20057;-78
2023/01/08 04:20:25;;;;;;;42.23;39.13;;;7.60;99.90;;;;;;5010836;28;20049;-78
2023/01/08 04:22:51;;;;;;;22.47;20.30;;;7.60;99.90;;;;;;5010798;28;20092;-77
2023/01/08 04:25:18;;;;;;;15.63;8.47;;;7.50;99.90;;;;;;4993774;28;20068;-78
2023/01/08 04:27:43;;;;;;;14.10;10.77;;;7.50;99.90;;;;;;4977879;28;20038;-78
2023/01/08 04:30:09;;;;;;;21.47;19.37;;;7.50;99.90;;;;;;5010865;28;20061;-79
2023/01/08 04:32:35;;;;;;;26.03;23.77;;;7.50;99.90;;;;;;5011200;28;20104;-78
2023/01/08 04:35:01;;;;;;;16.43;14.70;;;7.50;99.90;;;;;;5009731;28;20050;-77
2023/01/08 04:37:26;;;;;;;14.60;11.93;;;7.50;99.90;;;;;;4995907;28;20108;-77
2023/01/08 04:39:52;;;;;;;15.47;11.13;;;7.40;99.90;;;;;;5010880;28;20392;-77
2023/01/08 04:42:18;;;;;;;18.30;16.50;;;7.40;99.90;;;;;;5010181;28;20045;-76
2023/01/08 04:44:43;;;;;;;18.23;16.57;;;7.40;99.90;;;;;;5011012;28;20119;-77
2023/01/08 04:47:09;;;;;;;18.50;16.77;;;7.40;99.90;;;;;;4994343;28;20536;-77
2023/01/08 04:49:35;;;;;;;17.13;15.30;;;7.40;99.90;;;;;;4989900;28;20169;-77
2023/01/08 04:52:00;;;;;;;15.33;13.83;;;7.40;99.90;;;;;;4990875;28;20049;-79
2023/01/08 04:54:26;;;;;;;18.37;16.93;;;7.40;99.90;;;;;;4970721;28;20075;-77
2023/01/08 04:56:52;;;;;;;11.67;8.47;;;7.50;99.90;;;;;;4956440;28;20409;-77
2023/01/08 04:59:17;;;;;;;13.17;11.77;;;7.50;99.90;;;;;;4972178;28;20400;-77
2023/01/08 05:01:43;;;;;;;13.67;12.07;;;7.40;99.90;;;;;;4991289;28;20058;-78
2023/01/08 05:04:10;;;;;;;12.97;7.63;;;7.40;99.90;;;;;;4990442;28;20046;-77
2023/01/08 05:06:36;;;;;;;16.50;13.03;;;7.40;99.90;;;;;;4970162;28;20069;-76
2023/01/08 05:09:02;;;;;;;12.13;8.30;;;7.50;99.90;;;;;;4969156;28;20043;-78
2023/01/08 05:11:28;;;;;;;14.13;11.73;;;7.50;99.90;;;;;;5008026;28;20052;-77
2023/01/08 05:13:54;;;;;;;15.67;14.27;;;7.50;99.90;;;;;;5003835;28;20132;-77
2023/01/08 05:16:20;;;;;;;23.47;21.23;;;7.50;99.90;;;;;;4954098;28;20046;-77
2023/01/08 05:18:46;;;;;;;24.00;19.43;;;7.50;99.90;;;;;;4980202;28;20062;-79
2023/01/08 05:21:12;;;;;;;29.30;21.43;;;7.60;99.90;;;;;;4982910;28;20080;-78
2023/01/08 05:23:38;;;;;;;37.27;30.93;;;7.60;99.90;;;;;;4989856;28;20463;-77
2023/01/08 05:26:05;;;;;;;27.87;20.97;;;7.60;99.90;;;;;;4990220;28;20061;-78
2023/01/08 05:28:32;;;;;;;35.87;29.83;;;7.60;99.90;;;;;;4959875;28;20481;-77
2023/01/08 05:30:58;;;;;;;14.83;11.40;;;7.70;99.90;;;;;;4990591;28;20065;-76
2023/01/08 05:33:24;;;;;;;23.57;20.83;;;7.70;99.90;;;;;;4989583;28;20050;-77
2023/01/08 05:35:50;;;;;;;37.20;27.37;;;7.80;99.90;;;;;;4999869;28;20129;-78
2023/01/08 05:38:15;;;;;;;22.13;16.63;;;7.80;99.90;;;;;;4977338;28;20132;-78
2023/01/08 05:40:41;;;;;;;30.90;22.73;;;7.70;99.90;;;;;;4987950;28;20057;-78
2023/01/08 05:43:07;;;;;;;38.13;24.20;;;7.70;99.90;;;;;;4989577;28;20054;-78
2023/01/08 05:45:32;;;;;;;37.60;23.17;;;7.70;99.90;;;;;;4989301;28;20056;-77
2023/01/08 05:47:58;;;;;;;31.20;25.47;;;7.70;99.90;;;;;;4974181;28;20238;-77
2023/01/08 05:50:25;;;;;;;24.87;22.37;;;7.60;99.90;;;;;;5005485;28;20053;-77
2023/01/08 05:52:50;;;;;;;15.43;11.50;;;7.70;99.90;;;;;;5008451;28;20085;-77
2023/01/08 05:55:16;;;;;;;21.60;19.70;;;7.50;99.90;;;;;;5009856;28;20491;-77
2023/01/08 05:57:42;;;;;;;36.20;33.47;;;7.60;99.90;;;;;;4993927;28;20042;-77
2023/01/08 06:00:09;;;;;;;12.13;11.07;;;7.60;99.90;;;;;;5001478;28;20042;-77
2023/01/08 06:02:35;;;;;;;16.50;14.97;;;7.60;99.90;;;;;;4987295;28;20506;-77
2023/01/08 06:05:00;;;;;;;20.13;18.40;;;7.60;99.90;;;;;;5003857;28;20185;-77
2023/01/08 06:07:28;;;;;;;13.37;12.27;;;7.60;99.90;;;;;;4989986;28;20606;-77
2023/01/08 06:09:54;;;;;;;15.97;10.43;;;7.50;99.90;;;;;;5006931;28;20140;-78
2023/01/08 06:12:20;;;;;;;17.27;15.53;;;7.50;99.90;;;;;;5008953;28;20149;-78
2023/01/08 06:14:46;;;;;;;9.07;6.23;;;7.50;99.90;;;;;;5009074;28;20057;-77
2023/01/08 06:17:11;;;;;;;8.80;7.83;;;7.50;99.90;;;;;;4976184;28;20392;-79
2023/01/08 06:19:38;;;;;;;8.30;5.40;;;7.50;99.90;;;;;;4978377;28;20095;-78
2023/01/08 06:22:04;;;;;;;11.03;10.07;;;7.40;99.90;;;;;;4974667;28;20077;-77
2023/01/08 06:24:30;;;;;;;12.57;6.10;;;7.50;99.90;;;;;;5005879;28;20133;-77
2023/01/08 06:26:56;;;;;;;13.77;8.57;;;7.40;99.90;;;;;;4991677;28;20034;-79
2023/01/08 06:29:22;;;;;;;10.63;6.53;;;7.30;99.90;;;;;;5005062;28;20121;-78
2023/01/08 06:31:47;;;;;;;10.27;7.37;;;7.30;99.90;;;;;;4992040;28;20050;-78
2023/01/08 06:34:13;;;;;;;11.30;7.20;;;7.30;99.90;;;;;;4994547;28;20532;-79
2023/01/08 06:36:39;;;;;;;11.73;6.67;;;7.30;99.90;;;;;;4992357;28;20061;-78
2023/01/08 06:39:05;;;;;;;10.87;5.50;;;7.30;99.90;;;;;;5004748;28;20054;-78
2023/01/08 06:41:31;;;;;;;8.80;4.73;;;7.20;99.90;;;;;;5007650;28;20058;-79
2023/01/08 06:43:57;;;;;;;8.07;6.80;;;7.30;99.90;;;;;;5007862;28;20404;-81
2023/01/08 06:46:22;;;;;;;13.13;5.63;;;7.30;99.90;;;;;;4980298;28;20046;-81
2023/01/08 06:48:48;;;;;;;9.57;5.20;;;7.20;99.90;;;;;;4989569;28;20060;-78
2023/01/08 06:51:14;;;;;;;9.43;5.33;;;7.20;99.90;;;;;;4987992;28;20120;-77
2023/01/08 06:53:39;;;;;;;9.80;6.83;;;7.20;99.90;;;;;;5005855;28;20141;-77
2023/01/08 06:56:08;;;;;;;16.93;15.37;;;7.20;99.90;;;;;;5007944;28;20050;-77
2023/01/08 06:58:34;;;;;;;17.53;16.17;;;7.20;99.90;;;;;;4998906;28;20512;-78
2023/01/08 07:00:59;;;;;;;10.63;7.40;;;7.20;99.90;;;;;;4975423;28;20189;-81
2023/01/08 07:03:25;;;;;;;9.60;7.63;;;7.20;99.90;;;;;;4991074;28;20096;-77
2023/01/08 07:05:51;;;;;;;12.93;11.73;;;7.20;99.90;;;;;;5008982;28;20092;-77
2023/01/08 07:08:17;;;;;;;18.27;16.77;;;7.10;99.90;;;;;;4993018;28;20410;-77
2023/01/08 07:10:43;;;;;;;22.73;21.03;;;7.30;99.90;;;;;;5008555;28;20058;-78
2023/01/08 07:13:11;;;;;;;14.27;11.87;;;7.20;99.90;;;;;;4991021;28;20496;-77
2023/01/08 07:15:38;;;;;;;10.50;7.67;;;7.20;99.90;;;;;;4991428;28;20484;-78
2023/01/08 07:18:04;;;;;;;15.17;13.87;;;7.10;99.90;;;;;;4992709;28;20399;-76
2023/01/08 07:20:31;;;;;;;8.47;6.40;;;7.10;99.90;;;;;;5010681;28;20393;-79
2023/01/08 07:23:05;;;;;;;9.73;7.10;;;7.10;99.90;;;;;;4993879;28;20050;-77
2023/01/08 07:25:31;;;;;;;11.27;7.73;;;7.00;99.90;;;;;;5004166;28;20395;-78
2023/01/08 07:27:58;;;;;;;11.47;8.50;;;7.00;99.90;;;;;;4995917;28;20052;-77
2023/01/08 07:30:24;;;;;;;9.20;7.43;;;7.00;99.90;;;;;;5012644;28;20243;-77
2023/01/08 07:32:50;;;;;;;10.43;6.73;;;6.90;99.90;;;;;;5011603;28;20073;-76
2023/01/08 07:35:16;;;;;;;10.40;7.07;;;7.10;99.90;;;;;;5011307;28;20484;-77
2023/01/08 07:37:42;;;;;;;9.50;7.70;;;6.90;99.90;;;;;;4989691;28;20347;-77
2023/01/08 07:40:10;;;;;;;9.63;6.47;;;6.90;99.90;;;;;;4999498;28;20495;-76
2023/01/08 07:42:36;;;;;;;10.03;7.47;;;6.90;99.90;;;;;;5010819;28;20056;-77
2023/01/08 07:45:02;;;;;;;10.73;6.03;;;6.80;99.90;;;;;;5011828;28;20046;-78
2023/01/08 07:47:28;;;;;;;11.40;6.63;;;6.80;99.90;;;;;;4995887;28;20038;-77
2023/01/08 07:49:54;;;;;;;12.17;7.60;;;6.90;99.90;;;;;;4993718;28;20054;-79
2023/01/08 07:52:19;;;;;;;11.40;9.17;;;6.80;99.90;;;;;;4998742;28;20042;-77
2023/01/08 07:54:45;;;;;;;12.70;6.43;;;6.80;99.90;;;;;;5003523;28;20084;-77
2023/01/08 07:57:11;;;;;;;14.70;6.57;;;6.90;99.90;;;;;;4985750;28;20401;-78
2023/01/08 07:59:36;;;;;;;17.63;13.50;;;6.90;99.90;;;;;;4996780;28;20487;-79
2023/01/08 08:02:02;;;;;;;15.80;8.87;;;6.90;99.90;;;;;;5003646;28;20034;-78
2023/01/08 08:04:28;;;;;;;16.27;8.93;;;7.00;99.90;;;;;;4999901;28;20050;-77
2023/01/08 08:06:54;;;;;;;14.07;10.10;;;6.80;99.90;;;;;;4965243;28;20057;-77
2023/01/08 08:09:19;;;;;;;14.70;8.03;;;6.80;99.90;;;;;;4966354;28;20420;-77
2023/01/08 08:11:45;;;;;;;22.37;12.97;;;6.80;99.90;;;;;;4974318;28;20081;-77
2023/01/08 08:14:11;;;;;;;11.00;7.07;;;6.90;99.90;;;;;;5001040;28;20073;-78
2023/01/08 08:16:36;;;;;;;13.90;8.77;;;6.80;99.90;;;;;;4966916;28;20459;-77
2023/01/08 08:19:05;;;;;;;12.73;7.43;;;6.80;99.90;;;;;;4998356;28;20057;-78
2023/01/08 08:21:30;;;;;;;14.77;11.17;;;6.80;99.90;;;;;;4992081;28;20279;-80
2023/01/08 08:23:56;;;;;;;14.73;12.17;;;6.80;99.90;;;;;;4994582;28;20472;-77
2023/01/08 08:26:23;;;;;;;15.33;8.93;;;6.80;99.90;;;;;;4981161;28;20073;-80
2023/01/08 08:28:49;;;;;;;75.83;70.23;;;6.90;99.90;;;;;;4988537;28;20178;-77
2023/01/08 08:31:15;;;;;;;13.50;11.63;;;7.00;99.90;;;;;;4990584;28;20042;-78
2023/01/08 08:33:40;;;;;;;14.93;10.53;;;7.00;99.90;;;;;;4988520;28;20518;-78
2023/01/08 08:36:07;;;;;;;23.37;16.07;;;7.10;99.90;;;;;;4989513;28;20038;-81
2023/01/08 08:38:33;;;;;;;45.93;41.80;;;7.10;99.90;;;;;;4948442;28;20069;-78
2023/01/08 08:40:58;;;;;;;27.70;25.53;;;7.00;99.90;;;;;;4990996;28;20042;-77
2023/01/08 08:43:24;;;;;;;38.67;35.40;;;7.00;99.90;;;;;;4989512;28;20043;-77
2023/01/08 08:45:55;;;;;;;19.30;9.70;;;7.20;99.90;;;;;;4991105;28;20373;-77
2023/01/08 08:48:22;;;;;;;15.07;7.40;;;7.00;99.90;;;;;;4940027;28;20100;-78
2023/01/08 08:50:48;;;;;;;19.50;6.90;;;7.00;99.90;;;;;;4990789;28;20104;-77
2023/01/08 08:53:14;;;;;;;14.70;10.10;;;7.10;99.90;;;;;;4971675;28;20439;-78
2023/01/08 08:55:40;;;;;;;15.30;10.00;;;7.10;99.90;;;;;;4990661;28;20046;-77
2023/01/08 08:58:09;;;;;;;10.90;7.37;;;7.30;99.90;;;;;;4976396;28;20042;-78
2023/01/08 09:00:39;;;;;;;15.30;11.20;;;7.40;99.90;;;;;;4990761;28;20420;-77
2023/01/08 09:03:05;;;;;;;17.27;15.53;;;7.40;99.90;;;;;;4971817;28;20137;-77
2023/01/08 09:05:34;;;;;;;14.20;8.33;;;7.40;99.90;;;;;;4990406;28;20467;-77
2023/01/08 09:08:00;;;;;;;39.60;36.70;;;7.40;99.90;;;;;;4974860;28;20045;-75
2023/01/08 09:10:26;;;;;;;33.87;31.13;;;7.40;99.90;;;;;;4992141;28;20042;-76
2023/01/08 09:12:52;;;;;;;21.67;19.63;;;7.40;99.90;;;;;;4989942;28;20154;-77
2023/01/08 09:15:18;;;;;;;16.37;14.67;;;7.30;99.90;;;;;;4990136;28;20112;-78
2023/01/08 09:17:44;;;;;;;14.37;11.93;;;7.50;99.90;;;;;;4975122;28;20046;-77
2023/01/08 09:20:10;;;;;;;29.17;26.70;;;7.40;99.90;;;;;;4992986;28;20050;-78
2023/01/08 09:22:35;;;;;;;30.43;28.20;;;7.30;99.90;;;;;;4974359;28;20050;-77
2023/01/08 09:25:01;;;;;;;27.77;25.70;;;7.40;99.90;;;;;;4993978;28;20042;-76
2023/01/08 09:27:26;;;;;;;26.07;24.37;;;7.30;99.90;;;;;;4980650;28;20042;-77
2023/01/08 09:29:52;;;;;;;24.33;22.07;;;7.50;99.90;;;;;;4989255;28;20038;-76
2023/01/08 09:32:19;;;;;;;16.27;14.27;;;7.40;99.90;;;;;;4988739;28;20484;-77
2023/01/08 09:34:44;;;;;;;12.63;8.70;;;7.50;99.90;;;;;;4972217;28;20042;-76
2023/01/08 09:37:10;;;;;;;46.77;43.10;;;7.50;99.90;;;;;;4964475;28;20053;-77
2023/01/08 09:39:36;;;;;;;50.70;47.70;;;7.50;99.90;;;;;;4992174;28;20046;-77
2023/01/08 09:42:04;;;;;;;24.70;22.50;;;7.60;99.90;;;;;;4984168;28;20044;-77
2023/01/08 09:44:39;;;;;;;54.13;50.33;;;7.70;99.90;;;;;;4988489;28;20049;-77
2023/01/08 09:47:15;;;;;;;93.27;87.93;;;7.80;99.90;;;;;;4965302;28;20129;-76
2023/01/08 09:49:44;;;;;;;21.77;19.93;;;7.80;99.90;;;;;;4989393;28;20058;-76
2023/01/08 09:52:14;;;;;;;39.83;37.23;;;7.90;99.90;;;;;;5007614;28;20050;-77
2023/01/08 09:54:40;;;;;;;39.80;36.97;;;8.00;99.90;;;;;;4991988;28;20046;-76
2023/01/08 09:57:21;;;;;;;27.57;25.07;;;8.00;99.90;;;;;;4999663;28;20076;-76
2023/01/08 09:59:48;;;;;;;18.33;14.23;;;8.00;99.90;;;;;;4991534;28;20121;-76
2023/01/08 10:02:17;;;;;;;12.83;6.77;;;8.00;99.90;;;;;;5007054;28;20041;-78
2023/01/08 10:04:44;;;;;;;57.17;54.03;;;8.10;99.90;;;;;;5009330;28;20068;-76
2023/01/08 10:07:21;;;;;;;34.20;31.77;;;8.10;99.90;;;;;;4966878;28;20632;-77
2023/01/08 10:09:49;;;;;;;20.07;13.93;;;8.30;99.90;;;;;;4970372;28;20113;-77
2023/01/08 10:12:21;;;;;;;13.87;12.23;;;8.30;99.90;;;;;;4985753;28;20583;-76
2023/01/08 10:14:48;;;;;;;12.37;8.70;;;8.50;99.90;;;;;;4985452;28;20054;-77
2023/01/08 10:17:32;;;;;;;38.83;36.10;;;8.70;99.90;;;;;;4980074;28;20042;-78
2023/01/08 10:19:58;;;;;;;51.67;48.37;;;8.60;99.90;;;;;;4994678;28;20054;-77
2023/01/08 10:22:30;;;;;;;26.77;24.33;;;8.50;99.90;;;;;;5004090;28;20049;-77
2023/01/08 10:25:15;;;;;;;16.93;14.57;;;8.80;99.90;;;;;;4996996;28;20283;-78
2023/01/08 10:27:55;;;;;;;34.40;31.70;;;9.60;99.90;;;;;;4984503;28;20061;-77
2023/01/08 10:30:41;;;;;;;31.70;29.53;;;9.60;99.90;;;;;;5004395;28;20038;-77
2023/01/08 10:33:16;;;;;;;53.10;49.27;;;9.70;99.90;;;;;;4995475;28;20050;-77
2023/01/08 10:35:42;;;;;;;94.37;88.37;;;9.60;99.90;;;;;;4999520;28;20096;-77
2023/01/08 10:38:41;;;;;;;47.00;42.83;;;9.50;99.90;;;;;;4988664;28;20096;-77
2023/01/08 10:41:12;;;;;;;76.87;71.97;;;9.50;99.90;;;;;;4956670;28;20165;-76
2023/01/08 10:43:47;;;;;;;74.93;70.15;;;9.60;99.90;;;;;;5001443;28;20051;-80
2023/01/08 10:46:23;;;;;;;34.07;31.50;;;9.40;99.90;;;;;;4986270;28;20044;-79
2023/01/08 10:48:55;;;;;;;34.83;32.70;;;9.30;99.90;;;;;;4993684;28;20579;-77
2023/01/08 10:51:26;;;;;;;35.43;32.97;;;9.40;99.90;;;;;;4984267;28;20062;-80
2023/01/08 10:53:55;;;;;;;71.95;67.25;;;9.80;99.90;;;;;;5005503;28;20053;-76
2023/01/08 10:56:24;;;;;;;52.03;48.40;;;9.70;99.90;;;;;;4965176;28;20117;-76
2023/01/08 10:58:52;;;;;;;60.53;56.73;;;9.70;99.90;;;;;;4997380;28;20383;-78
2023/01/08 11:01:21;;;;;;;56.80;53.03;;;9.20;99.90;;;;;;5008558;28;20096;-76
2023/01/08 11:04:05;;;;;;;69.03;64.63;;;9.40;99.90;;;;;;5008595;28;20054;-79
2023/01/08 11:06:35;;;;;;;54.93;51.77;;;9.60;99.90;;;;;;5000102;28;20057;-76
2023/01/08 11:09:12;;;;;;;33.05;30.48;;;9.30;99.90;;;;;;5006003;28;20080;-77
2023/01/08 11:11:38;;;;;;;57.37;53.90;;;9.30;99.90;;;;;;5009038;28;20458;-76
2023/01/08 11:14:18;;;;;;;45.30;42.23;;;9.30;99.90;;;;;;5006980;28;20064;-77
2023/01/08 11:16:45;;;;;;;85.77;80.13;;;9.10;99.90;;;;;;4995568;28;20057;-77
2023/01/08 11:19:21;;;;;;;67.47;63.50;;;9.50;99.90;;;;;;5006257;28;20333;-77
2023/01/08 11:22:02;;;;;;;57.70;54.27;;;9.60;99.90;;;;;;5000504;28;20042;-77
2023/01/08 11:24:34;;;;;;;59.67;56.13;;;9.50;99.90;;;;;;5001928;28;20125;-80
2023/01/08 11:27:08;;;;;;;53.00;49.75;;;9.30;99.90;;;;;;4994330;28;20049;-77
2023/01/08 11:29:50;;;;;;;41.20;38.17;;;9.20;99.90;;;;;;5008469;28;20396;-76
2023/01/08 11:32:34;;;;;;;57.97;53.78;;;9.40;99.90;;;;;;4994364;28;20057;-77
2023/01/08 11:35:28;;;;;;;32.33;29.73;;;9.80;99.90;;;;;;5011040;28;20573;-77
2023/01/08 11:38:05;;;;;;;58.80;55.23;;;9.80;99.90;;;;;;4987104;28;20092;-76
2023/01/08 11:40:41;;;;;;;76.30;71.03;;;9.50;99.90;;;;;;5012004;28;20054;-77
2023/01/08 11:43:49;;;;;;;29.10;26.60;;;9.40;99.90;;;;;;5011269;28;20339;-79
2023/01/08 11:46:41;;;;;;;33.40;31.10;;;9.50;99.90;;;;;;4947687;28;20409;-76
2023/01/08 11:49:31;;;;;;;66.00;61.70;;;9.40;99.90;;;;;;5004747;28;20426;-76
2023/01/08 11:52:22;;;;;;;46.17;42.73;;;9.90;99.90;;;;;;5011310;28;20045;-75
2023/01/08 11:54:57;;;;;;;56.75;53.42;;;9.80;99.90;;;;;;5011122;28;20041;-77
2023/01/08 11:57:48;;;;;;;56.97;53.37;;;9.50;99.90;;;;;;4977321;28;20466;-76
2023/01/08 12:00:22;;;;;;;63.75;60.03;;;9.50;99.90;;;;;;5011694;28;20092;-81
2023/01/08 12:02:48;;;;;;;60.93;57.23;;;9.50;99.90;;;;;;4994072;28;20541;-76
2023/01/08 12:05:42;;;;;;;33.00;30.40;;;9.40;99.90;;;;;;4993458;28;20290;-76
2023/01/08 12:08:24;;;;;;;54.93;50.93;;;9.20;99.90;;;;;;4978429;28;20080;-75
2023/01/08 12:10:50;;;;;;;55.97;51.90;;;9.00;99.90;;;;;;5011564;28;20072;-76
2023/01/08 12:13:27;;;;;;;28.87;25.97;;;9.00;99.90;;;;;;5011271;28;20538;-75
2023/01/08 12:16:25;;;;;;;45.40;41.53;;;9.10;99.90;;;;;;5011216;28;20057;-76
2023/01/08 12:19:16;;;;;;;41.03;37.70;;;9.20;99.90;;;;;;4955986;28;20119;-76
2023/01/08 12:22:10;;;;;;;42.28;38.90;;;9.20;99.90;;;;;;5011590;28;20068;-77
2023/01/08 12:25:20;;;;;;;27.20;24.67;;;9.10;99.90;;;;;;4992961;28;20060;-76
2023/01/08 12:28:16;;;;;;;48.47;44.93;;;9.20;99.90;;;;;;4979717;28;20045;-76
2023/01/08 12:30:50;;;;;;;65.63;61.07;;;9.00;99.90;;;;;;5008392;28;20068;-76
2023/01/08 12:33:42;;;;;;;32.50;29.17;;;9.10;99.90;;;;;;5008239;28;20104;-76
2023/01/08 12:36:13;;;;;;;35.37;32.17;;;9.00;99.90;;;;;;4995414;28;20058;-79
2023/01/08 12:38:43;;;;;;;63.83;59.30;;;8.90;99.90;;;;;;4983921;28;20500;-75
2023/01/08 12:41:17;;;;;;;20.27;16.60;;;8.70;99.90;;;;;;4990650;28;20045;-76
2023/01/08 12:43:56;;;;;;;33.03;29.83;;;8.80;99.90;;;;;;5006161;28;20046;-76
2023/01/08 12:46:25;;;;;;;25.87;23.30;;;9.10;99.90;;;;;;4978453;28;20128;-78
2023/01/08 12:48:53;;;;;;;28.23;26.13;;;9.40;99.90;;;;;;5003592;28;20416;-77
2023/01/08 12:51:25;;;;;;;49.50;46.23;;;9.30;99.90;;;;;;5007985;28;20129;-76
2023/01/08 12:54:42;;;;;;;41.97;38.67;;;9.20;99.90;;;;;;5007503;28;20137;-75
2023/01/08 12:57:19;;;;;;;41.03;37.60;;;9.00;99.90;;;;;;4962604;28;20045;-78